Time;durP1;ratioP1;P1;durP2;ratioP2;P2;SDS_P1;SDS_P2;PMS_P1;PMS_P2;Temp;Humidity;BMP_temperature;BMP_pressure;BME280_temperature;BME280_humidity;BME280_pressure;Samples;Min_cycle;Max_cycle;Signal;HPM_P1;HPM_P2
2021/04/19 00:01:03;;;;;;;14.90;13.40;;;19.10;30.00;;;;;;5033312;28;20554;-74
2021/04/19 00:03:29;;;;;;;15.23;12.77;;;19.10;30.00;;;;;;5033592;28;20192;-74
2021/04/19 00:05:55;;;;;;;15.03;13.47;;;19.10;30.00;;;;;;5033144;28;20235;-74
2021/04/19 00:08:20;;;;;;;16.70;14.77;;;19.10;30.00;;;;;;5033324;28;20183;-74
2021/04/19 00:10:47;;;;;;;16.83;13.23;;;19.10;30.00;;;;;;5035574;28;20196;-74
2021/04/19 00:13:12;;;;;;;18.47;13.17;;;19.10;30.00;;;;;;5033030;28;20283;-74
2021/04/19 00:15:38;;;;;;;14.83;13.37;;;19.10;30.10;;;;;;5038649;28;20860;-74
2021/04/19 00:18:04;;;;;;;14.87;13.47;;;19.10;30.10;;;;;;5032992;28;20187;-74
2021/04/19 00:20:30;;;;;;;14.60;13.30;;;19.10;30.00;;;;;;5032971;28;20166;-74
2021/04/19 00:22:56;;;;;;;14.33;12.93;;;19.10;30.10;;;;;;5033081;28;20404;-74
2021/04/19 00:25:21;;;;;;;14.27;12.97;;;19.10;30.00;;;;;;5034940;28;20177;-74
2021/04/19 00:27:47;;;;;;;14.27;12.87;;;19.10;30.00;;;;;;5034747;28;20435;-74
2021/04/19 00:30:13;;;;;;;14.07;12.63;;;19.10;30.00;;;;;;5032893;28;20259;-74
2021/04/19 00:32:39;;;;;;;16.37;12.50;;;19.10;30.00;;;;;;5032952;28;20193;-74
2021/04/19 00:35:08;;;;;;;14.80;13.20;;;19.10;30.00;;;;;;5032672;28;20419;-74
2021/04/19 00:37:34;;;;;;;14.33;12.90;;;19.00;30.00;;;;;;5032494;28;20212;-74
2021/04/19 00:40:00;;;;;;;14.27;12.97;;;19.00;30.00;;;;;;5032592;28;20411;-74
2021/04/19 00:42:26;;;;;;;13.17;11.67;;;19.00;30.00;;;;;;5032660;28;20423;-74
2021/04/19 00:44:52;;;;;;;13.27;12.03;;;19.00;30.00;;;;;;5032757;28;20411;-74
2021/04/19 00:47:17;;;;;;;13.57;12.17;;;19.00;30.00;;;;;;5032341;28;20192;-74
2021/04/19 00:49:43;;;;;;;14.47;11.97;;;19.00;30.00;;;;;;5032722;28;20172;-74
2021/04/19 00:52:09;;;;;;;14.53;12.73;;;19.00;30.00;;;;;;5032551;28;20196;-73
2021/04/19 00:54:36;;;;;;;12.97;11.77;;;19.00;30.00;;;;;;5033047;28;20223;-73
2021/04/19 00:57:01;;;;;;;13.67;12.27;;;19.00;30.00;;;;;;5032803;28;20423;-74
2021/04/19 00:59:27;;;;;;;14.27;12.27;;;19.00;30.00;;;;;;5033544;28;20411;-74
2021/04/19 01:01:53;;;;;;;13.63;12.13;;;19.00;30.00;;;;;;5032626;28;20181;-74
2021/04/19 01:04:18;;;;;;;12.47;11.20;;;19.00;30.00;;;;;;5032424;28;20184;-74
2021/04/19 01:06:45;;;;;;;11.70;10.70;;;19.00;30.00;;;;;;5031876;28;20208;-74
2021/04/19 01:09:10;;;;;;;12.03;10.93;;;19.00;30.00;;;;;;5031671;28;20196;-74
2021/04/19 01:11:36;;;;;;;12.23;10.93;;;19.00;30.00;;;;;;5031765;28;20451;-74
2021/04/19 01:14:02;;;;;;;12.93;11.83;;;19.00;30.00;;;;;;5032180;28;20172;-74
2021/04/19 01:16:28;;;;;;;12.83;11.53;;;18.90;30.00;;;;;;5031596;28;20283;-74
2021/04/19 01:18:53;;;;;;;14.20;12.70;;;18.90;30.00;;;;;;5032038;28;20975;-74
2021/04/19 01:21:19;;;;;;;12.37;11.13;;;19.00;30.00;;;;;;5031896;28;20411;-74
2021/04/19 01:23:45;;;;;;;11.17;10.23;;;19.00;30.00;;;;;;5030658;28;20613;-74
2021/04/19 01:26:10;;;;;;;11.37;10.40;;;19.00;30.00;;;;;;5031527;28;20275;-74
2021/04/19 01:28:36;;;;;;;12.03;10.93;;;18.90;30.00;;;;;;5031813;28;20176;-74
2021/04/19 01:31:01;;;;;;;12.00;10.90;;;19.00;30.10;;;;;;5031704;28;20176;-74
2021/04/19 01:33:27;;;;;;;12.07;10.90;;;18.90;30.00;;;;;;5031558;28;20211;-74
2021/04/19 01:35:53;;;;;;;12.20;11.00;;;18.90;30.00;;;;;;5031292;28;20179;-74
2021/04/19 01:38:22;;;;;;;11.07;10.13;;;18.90;30.00;;;;;;5031714;28;20176;-74
2021/04/19 01:40:49;;;;;;;11.50;10.50;;;18.90;30.00;;;;;;5031678;28;20537;-74
2021/04/19 01:43:16;;;;;;;12.07;10.97;;;18.90;30.00;;;;;;5031786;28;20469;-74
2021/04/19 01:45:42;;;;;;;11.20;10.30;;;18.90;30.00;;;;;;5031278;28;20446;-74
2021/04/19 01:48:08;;;;;;;11.73;10.73;;;18.90;30.00;;;;;;5031595;28;20457;-74
2021/04/19 01:50:33;;;;;;;12.30;11.10;;;18.90;30.00;;;;;;5031630;28;20283;-74
2021/04/19 01:53:00;;;;;;;11.80;10.63;;;18.90;30.00;;;;;;5031569;28;20204;-74
2021/04/19 01:55:28;;;;;;;11.50;10.40;;;18.90;30.00;;;;;;5031406;28;20223;-74
2021/04/19 01:58:09;;;;;;;11.97;11.00;;;18.90;30.00;;;;;;5031549;28;20929;-74
2021/04/19 02:00:37;;;;;;;11.27;10.10;;;18.90;30.00;;;;;;5031613;28;20423;-74
2021/04/19 02:03:06;;;;;;;11.50;10.60;;;18.90;30.00;;;;;;5031576;28;20420;-74
2021/04/19 02:05:41;;;;;;;11.70;10.50;;;18.90;30.00;;;;;;5031274;28;20419;-74
2021/04/19 02:08:33;;;;;;;11.83;10.20;;;18.90;30.00;;;;;;5031642;28;20415;-74
2021/04/19 02:11:04;;;;;;;11.63;10.40;;;18.80;29.90;;;;;;5032643;28;20525;-74
2021/04/19 02:13:40;;;;;;;12.80;11.60;;;18.80;29.90;;;;;;5046090;28;20847;-74
2021/04/19 02:16:43;;;;;;;10.83;9.90;;;18.80;30.00;;;;;;5023297;28;20426;-74
2021/04/19 02:19:19;;;;;;;11.23;10.23;;;18.90;30.00;;;;;;5031512;28;20410;-74
2021/04/19 02:21:50;;;;;;;11.03;9.93;;;18.90;30.00;;;;;;5033436;28;20500;-74
2021/04/19 02:24:23;;;;;;;12.77;10.77;;;18.80;29.90;;;;;;5035287;28;20886;-74
2021/04/19 02:26:54;;;;;;;11.73;10.40;;;18.80;30.00;;;;;;5033608;28;21015;-74
2021/04/19 02:29:30;;;;;;;11.00;9.90;;;18.80;29.90;;;;;;5035374;28;20418;-74
2021/04/19 02:31:59;;;;;;;11.33;10.40;;;18.80;29.90;;;;;;5034883;28;20455;-74
2021/04/19 02:34:29;;;;;;;11.57;10.47;;;18.80;29.90;;;;;;5035151;28;20753;-74
2021/04/19 02:36:57;;;;;;;10.17;9.30;;;18.80;29.90;;;;;;5034702;28;20463;-74
2021/04/19 02:39:25;;;;;;;10.20;9.37;;;18.80;29.90;;;;;;5033712;28;20433;-74
2021/04/19 02:41:52;;;;;;;11.93;10.03;;;18.80;30.00;;;;;;5034769;28;20415;-74
2021/04/19 02:44:22;;;;;;;10.67;9.87;;;18.80;30.00;;;;;;5034822;28;20415;-74
2021/04/19 02:46:52;;;;;;;9.53;8.50;;;18.80;29.90;;;;;;5034433;28;20895;-74
2021/04/19 02:49:21;;;;;;;11.90;10.70;;;18.80;29.90;;;;;;5034733;28;20989;-74
2021/04/19 02:51:50;;;;;;;10.70;9.80;;;18.80;29.90;;;;;;5034637;28;20478;-74
2021/04/19 02:54:17;;;;;;;9.93;9.23;;;18.80;29.90;;;;;;5034709;28;20411;-74
2021/04/19 02:56:43;;;;;;;10.20;9.30;;;18.80;29.90;;;;;;5034226;28;20933;-74
2021/04/19 02:59:11;;;;;;;9.97;9.07;;;18.80;29.90;;;;;;5034493;28;20416;-74
2021/04/19 03:01:41;;;;;;;9.80;9.00;;;18.80;30.00;;;;;;5033209;28;20508;-73
2021/04/19 03:04:11;;;;;;;9.90;9.10;;;18.80;29.90;;;;;;5034500;28;20423;-74
2021/04/19 03:06:39;;;;;;;10.03;9.20;;;18.80;29.90;;;;;;5034123;28;20530;-74
2021/04/19 03:09:06;;;;;;;9.80;8.90;;;18.70;29.90;;;;;;5034294;28;20979;-73
2021/04/19 03:11:40;;;;;;;9.00;8.27;;;18.80;29.90;;;;;;5034083;28;20474;-74
2021/04/19 03:14:08;;;;;;;9.43;8.73;;;18.70;29.90;;;;;;5034340;28;20435;-74
2021/04/19 03:16:36;;;;;;;9.70;8.90;;;18.70;29.90;;;;;;5033865;28;20436;-74
2021/04/19 03:19:07;;;;;;;9.07;8.27;;;18.70;29.90;;;;;;5034235;28;20724;-74
2021/04/19 03:21:37;;;;;;;10.30;9.50;;;18.70;29.90;;;;;;5034196;28;20427;-74
2021/04/19 03:24:05;;;;;;;9.10;8.40;;;18.70;29.90;;;;;;5034188;28;20418;-74
2021/04/19 03:26:33;;;;;;;9.20;8.47;;;18.70;29.90;;;;;;5033775;28;20435;-74
2021/04/19 03:28:59;;;;;;;9.90;9.00;;;18.70;29.90;;;;;;5034082;28;20412;-74
2021/04/19 03:31:34;;;;;;;9.43;8.63;;;18.70;29.90;;;;;;5032603;28;20847;-74
2021/04/19 03:34:06;;;;;;;10.93;9.83;;;18.70;29.90;;;;;;5033240;28;20485;-74
2021/04/19 03:36:33;;;;;;;9.47;8.60;;;18.70;29.90;;;;;;5033398;28;20925;-74
2021/04/19 03:39:01;;;;;;;9.63;8.83;;;18.70;29.90;;;;;;5033844;28;20407;-74
2021/04/19 03:41:30;;;;;;;9.00;8.30;;;18.70;30.00;;;;;;5033677;28;20495;-74
2021/04/19 03:43:58;;;;;;;9.00;8.30;;;18.70;30.00;;;;;;5033740;28;20411;-74
2021/04/19 03:46:25;;;;;;;8.87;8.13;;;18.80;29.90;;;;;;5033343;28;20426;-73
2021/04/19 03:48:57;;;;;;;9.80;9.10;;;19.00;29.80;;;;;;5033614;28;20909;-74
2021/04/19 03:51:23;;;;;;;8.73;7.97;;;19.10;29.50;;;;;;5033502;28;20402;-73
2021/04/19 03:53:52;;;;;;;9.23;8.53;;;19.20;29.40;;;;;;5033598;28;20411;-74
2021/04/19 03:56:19;;;;;;;9.20;8.50;;;19.40;29.60;;;;;;5033267;28;20967;-74
2021/04/19 03:58:46;;;;;;;8.63;7.93;;;19.50;29.50;;;;;;5033446;28;20416;-74
2021/04/19 04:01:13;;;;;;;9.23;8.50;;;19.50;29.10;;;;;;5033390;28;20412;-74
2021/04/19 04:03:41;;;;;;;9.67;8.87;;;19.60;29.10;;;;;;5033217;28;20419;-74
2021/04/19 04:06:09;;;;;;;8.87;8.27;;;19.60;28.90;;;;;;5033097;28;20804;-74
2021/04/19 04:08:35;;;;;;;9.37;8.57;;;19.70;28.90;;;;;;5042107;28;20530;-74
2021/04/19 04:11:01;;;;;;;9.60;8.80;;;19.70;28.80;;;;;;5033356;28;20502;-74
2021/04/19 04:13:29;;;;;;;8.43;7.73;;;19.70;28.70;;;;;;5042921;28;20576;-74
2021/04/19 04:15:59;;;;;;;8.83;8.13;;;19.80;28.70;;;;;;5035567;28;20502;-74
2021/04/19 04:18:25;;;;;;;9.10;8.20;;;19.80;28.80;;;;;;5032900;28;20411;-74
2021/04/19 04:20:51;;;;;;;8.97;8.27;;;19.70;28.80;;;;;;5040134;28;20426;-74
2021/04/19 04:23:18;;;;;;;8.77;8.07;;;19.80;29.00;;;;;;5033489;28;20511;-74
2021/04/19 04:25:45;;;;;;;8.60;7.97;;;19.70;29.10;;;;;;5034735;28;20745;-74
2021/04/19 04:28:11;;;;;;;8.27;7.67;;;19.70;29.10;;;;;;5034107;28;20412;-75
2021/04/19 04:30:36;;;;;;;8.83;8.13;;;19.70;29.10;;;;;;5036290;28;20415;-74
2021/04/19 04:33:07;;;;;;;7.80;7.07;;;19.70;29.10;;;;;;5030704;28;20533;-73
2021/04/19 04:35:34;;;;;;;9.00;8.00;;;19.70;29.00;;;;;;5031302;28;20742;-74
2021/04/19 04:38:00;;;;;;;7.77;7.07;;;19.70;29.10;;;;;;5030294;28;20428;-73
2021/04/19 04:40:27;;;;;;;8.77;7.83;;;19.70;29.10;;;;;;5030611;28;20812;-73
2021/04/19 04:43:00;;;;;;;7.73;7.03;;;19.80;29.10;;;;;;5030561;28;20454;-74
2021/04/19 04:45:26;;;;;;;8.37;7.67;;;19.80;29.10;;;;;;5030453;28;20782;-73
2021/04/19 04:48:24;;;;;;;7.63;7.00;;;19.80;29.20;;;;;;5030446;28;20470;-73
2021/04/19 04:51:00;;;;;;;9.33;7.30;;;19.80;29.20;;;;;;5031988;28;20422;-73
2021/04/19 04:53:32;;;;;;;6.90;6.40;;;19.70;29.20;;;;;;5030101;28;20992;-73
2021/04/19 04:56:00;;;;;;;8.40;7.70;;;19.80;29.30;;;;;;5011722;28;20502;-74
2021/04/19 04:58:26;;;;;;;8.13;7.33;;;19.80;29.30;;;;;;5038974;28;20416;-73
2021/04/19 05:00:54;;;;;;;7.73;7.03;;;19.80;29.50;;;;;;5029685;28;20411;-74
2021/04/19 05:03:21;;;;;;;7.47;6.87;;;19.70;29.40;;;;;;5029338;28;20764;-73
2021/04/19 05:05:47;;;;;;;8.00;7.40;;;19.70;29.50;;;;;;5030030;28;20477;-73
2021/04/19 05:08:13;;;;;;;7.77;7.07;;;19.70;29.50;;;;;;5030208;28;20876;-73
2021/04/19 05:10:39;;;;;;;7.13;6.60;;;19.70;29.70;;;;;;5028415;28;20203;-73
2021/04/19 05:13:15;;;;;;;7.27;6.57;;;19.70;29.80;;;;;;5030223;28;20501;-74
2021/04/19 05:15:45;;;;;;;8.10;7.40;;;19.70;29.80;;;;;;5034725;28;20911;-73
2021/04/19 05:18:15;;;;;;;8.43;7.60;;;19.70;29.80;;;;;;5035298;28;20415;-73
2021/04/19 05:20:41;;;;;;;7.83;7.13;;;19.60;29.70;;;;;;5033138;28;20422;-73
2021/04/19 05:23:07;;;;;;;9.00;7.63;;;19.60;29.70;;;;;;5034453;28;20431;-73
2021/04/19 05:25:33;;;;;;;8.13;7.43;;;19.60;29.70;;;;;;5033911;28;20418;-73
2021/04/19 05:28:00;;;;;;;7.67;7.03;;;19.60;29.70;;;;;;5029742;28;20439;-73
2021/04/19 05:30:27;;;;;;;7.33;6.83;;;19.60;29.70;;;;;;5029631;28;20416;-73
2021/04/19 05:32:53;;;;;;;8.00;7.03;;;19.60;29.70;;;;;;5030321;28;20548;-72
2021/04/19 05:35:19;;;;;;;8.47;7.67;;;19.60;29.70;;;;;;5030784;28;20506;-73
2021/04/19 05:37:47;;;;;;;8.20;7.40;;;19.70;29.80;;;;;;5035208;28;20227;-73
2021/04/19 05:40:13;;;;;;;9.47;7.60;;;19.70;29.80;;;;;;5035744;28;20443;-73
2021/04/19 05:42:39;;;;;;;10.00;7.03;;;19.70;29.80;;;;;;5041016;28;20426;-72
2021/04/19 05:45:07;;;;;;;10.70;8.37;;;19.70;30.40;;;;;;5036563;28;20473;-73
2021/04/19 05:47:33;;;;;;;8.63;7.83;;;19.80;29.80;;;;;;5033402;28;20200;-69
2021/04/19 05:49:58;;;;;;;12.33;7.90;;;19.70;29.80;;;;;;5040014;28;20573;-70
2021/04/19 05:52:24;;;;;;;11.60;7.90;;;19.80;30.00;;;;;;5026360;28;20219;-70
2021/04/19 05:54:50;;;;;;;8.13;7.30;;;19.70;29.80;;;;;;5027815;28;20172;-70
2021/04/19 05:57:34;;;;;;;8.53;7.33;;;19.70;30.00;;;;;;5043908;28;20447;-70
2021/04/19 06:00:52;;;;;;;8.03;6.97;;;19.70;29.80;;;;;;5038999;28;20190;-71
2021/04/19 06:03:34;;;;;;;10.73;7.70;;;19.80;30.30;;;;;;5038225;28;20434;-71
2021/04/19 06:06:36;;;;;;;8.70;7.37;;;19.80;29.80;;;;;;5033180;28;20483;-71
2021/04/19 06:09:15;;;;;;;8.70;6.87;;;19.80;29.90;;;;;;5042511;28;20431;-71
2021/04/19 06:11:49;;;;;;;10.47;6.93;;;19.80;29.80;;;;;;5037802;28;20859;-70
2021/04/19 06:14:25;;;;;;;9.13;7.73;;;19.80;29.90;;;;;;5040612;28;20466;-71
2021/04/19 06:16:53;;;;;;;8.93;7.57;;;19.80;29.90;;;;;;5042741;28;20442;-70
2021/04/19 06:19:20;;;;;;;30.67;8.20;;;19.80;30.00;;;;;;5043276;28;20419;-71
2021/04/19 06:21:46;;;;;;;9.40;7.90;;;19.90;29.90;;;;;;5038163;28;20529;-71
2021/04/19 06:24:12;;;;;;;9.53;7.53;;;19.80;29.80;;;;;;5041372;28;20513;-70
2021/04/19 06:26:38;;;;;;;8.67;7.80;;;19.80;29.90;;;;;;5039286;28;20208;-74
2021/04/19 06:29:05;;;;;;;12.10;7.70;;;19.80;30.00;;;;;;5032264;28;20183;-73
2021/04/19 06:31:32;;;;;;;8.47;7.53;;;19.80;30.00;;;;;;5040447;28;20491;-73
2021/04/19 06:34:08;;;;;;;8.00;7.13;;;19.80;29.80;;;;;;5041154;28;20489;-73
2021/04/19 06:36:37;;;;;;;10.00;7.23;;;19.80;29.80;;;;;;5028713;28;20499;-73
2021/04/19 06:39:05;;;;;;;7.97;7.27;;;19.80;29.90;;;;;;5034570;28;20427;-73
2021/04/19 06:41:30;;;;;;;8.50;7.70;;;19.80;29.80;;;;;;5035760;28;20423;-73
2021/04/19 06:43:57;;;;;;;8.97;7.13;;;19.80;29.80;;;;;;5047183;28;20493;-73
2021/04/19 06:46:30;;;;;;;8.47;7.23;;;19.90;29.90;;;;;;5038291;28;20219;-72
2021/04/19 06:48:57;;;;;;;8.23;6.97;;;19.80;29.60;;;;;;5033275;28;20978;-71
2021/04/19 06:51:22;;;;;;;7.57;6.90;;;19.90;29.80;;;;;;5032885;28;20426;-71
2021/04/19 06:53:53;;;;;;;8.03;7.20;;;19.90;29.70;;;;;;5040227;28;20929;-71
2021/04/19 06:56:22;;;;;;;7.93;7.17;;;19.90;29.50;;;;;;5032470;28;20427;-71
2021/04/19 06:58:51;;;;;;;11.37;7.00;;;19.90;29.40;;;;;;5033962;28;20481;-71
2021/04/19 07:01:19;;;;;;;7.23;6.63;;;19.90;29.50;;;;;;5032553;28;20450;-71
2021/04/19 07:04:03;;;;;;;8.33;7.30;;;19.90;29.50;;;;;;5040662;28;20415;-71
2021/04/19 07:06:32;;;;;;;17.57;8.30;;;19.90;29.40;;;;;;5032283;28;20857;-71
2021/04/19 07:09:20;;;;;;;7.47;6.60;;;19.80;29.50;;;;;;5033141;28;20487;-72
2021/04/19 07:11:50;;;;;;;15.60;8.37;;;19.90;29.40;;;;;;5032401;28;20463;-72
2021/04/19 07:14:17;;;;;;;14.13;7.97;;;19.90;29.40;;;;;;5031295;28;20419;-71
2021/04/19 07:16:42;;;;;;;11.17;8.33;;;19.90;29.40;;;;;;5031774;28;20478;-70
2021/04/19 07:19:08;;;;;;;8.13;7.30;;;19.90;29.70;;;;;;5031067;28;20957;-71
2021/04/19 07:21:34;;;;;;;11.10;7.70;;;19.90;29.50;;;;;;5032286;28;20184;-71
2021/04/19 07:24:03;;;;;;;13.33;8.33;;;19.90;29.50;;;;;;5031889;28;20172;-70
2021/04/19 07:26:30;;;;;;;13.63;7.83;;;19.90;29.60;;;;;;5031757;28;20436;-69
2021/04/19 07:28:55;;;;;;;11.13;7.33;;;19.90;29.50;;;;;;5030640;28;20423;-70
2021/04/19 07:31:21;;;;;;;8.13;7.33;;;19.90;29.90;;;;;;5032257;28;20411;-71
2021/04/19 07:33:47;;;;;;;8.43;7.67;;;19.90;29.90;;;;;;5031974;28;20200;-70
2021/04/19 07:36:19;;;;;;;13.57;8.17;;;19.90;29.90;;;;;;5031782;28;20281;-71
2021/04/19 07:38:45;;;;;;;10.67;8.20;;;19.90;29.90;;;;;;5031768;28;20722;-70
2021/04/19 07:41:10;;;;;;;8.43;7.57;;;19.90;29.90;;;;;;5032270;28;20503;-70
2021/04/19 07:43:38;;;;;;;13.27;8.90;;;19.90;29.90;;;;;;5031804;28;20505;-70
2021/04/19 07:46:08;;;;;;;9.90;7.90;;;19.90;29.90;;;;;;5031379;28;20255;-71
2021/04/19 07:48:42;;;;;;;8.97;7.97;;;19.90;29.90;;;;;;5032080;28;20404;-70
2021/04/19 07:51:26;;;;;;;10.10;7.90;;;19.90;29.90;;;;;;5030091;28;20886;-70
2021/04/19 07:54:10;;;;;;;11.13;8.10;;;19.90;29.90;;;;;;5038951;28;20426;-70
2021/04/19 07:56:36;;;;;;;8.40;7.63;;;19.80;29.90;;;;;;5036784;28;20431;-70
2021/04/19 07:59:25;;;;;;;11.50;8.13;;;19.80;29.90;;;;;;5039582;28;20506;-70
2021/04/19 08:02:18;;;;;;;8.17;7.40;;;19.90;29.90;;;;;;5031423;28;20466;-70
2021/04/19 08:04:46;;;;;;;7.53;6.90;;;19.90;29.90;;;;;;5031980;28;20407;-70
2021/04/19 08:07:22;;;;;;;11.53;8.10;;;19.90;29.90;;;;;;5031396;28;20430;-70
2021/04/19 08:10:05;;;;;;;8.20;7.40;;;19.90;29.90;;;;;;5031361;28;20458;-71
2021/04/19 08:12:39;;;;;;;8.47;7.17;;;19.90;29.90;;;;;;5041657;28;20458;-70
2021/04/19 08:15:13;;;;;;;10.00;8.43;;;19.90;29.90;;;;;;5022950;28;20412;-71
2021/04/19 08:17:40;;;;;;;8.37;6.97;;;19.90;29.90;;;;;;5026982;28;20443;-70
2021/04/19 08:20:07;;;;;;;8.37;7.57;;;19.90;29.90;;;;;;5034835;28;20490;-71
2021/04/19 08:22:35;;;;;;;7.90;7.10;;;19.90;29.90;;;;;;5037091;28;20481;-71
2021/04/19 08:25:14;;;;;;;11.40;7.63;;;19.90;29.90;;;;;;5030936;28;20404;-71
2021/04/19 08:27:43;;;;;;;9.47;7.30;;;19.90;29.80;;;;;;5031280;28;20934;-71
2021/04/19 08:30:12;;;;;;;9.30;7.50;;;19.90;29.70;;;;;;5030322;28;20443;-71
2021/04/19 08:32:38;;;;;;;7.20;6.60;;;19.90;29.80;;;;;;5030878;28;20536;-71
2021/04/19 08:35:05;;;;;;;11.10;6.77;;;19.90;29.60;;;;;;5029602;28;20420;-71
2021/04/19 08:37:31;;;;;;;8.83;7.30;;;20.00;29.70;;;;;;5030552;28;20436;-71
2021/04/19 08:39:58;;;;;;;8.70;7.57;;;19.90;29.60;;;;;;5030870;28;20969;-71
2021/04/19 08:42:25;;;;;;;7.87;7.23;;;19.90;29.50;;;;;;5031020;28;20542;-71
2021/04/19 08:44:56;;;;;;;11.37;6.87;;;20.00;29.70;;;;;;5030489;28;20445;-71
2021/04/19 08:47:26;;;;;;;7.20;6.50;;;20.00;29.70;;;;;;5031265;28;20952;-71
2021/04/19 08:49:53;;;;;;;7.00;6.27;;;20.00;29.60;;;;;;5032030;28;21000;-71
2021/04/19 08:52:18;;;;;;;7.00;6.47;;;20.00;29.50;;;;;;5031449;28;20447;-71
2021/04/19 08:54:45;;;;;;;10.60;7.47;;;20.00;29.60;;;;;;5031880;28;20924;-70
2021/04/19 08:57:11;;;;;;;8.90;6.80;;;20.00;29.60;;;;;;5044740;28;20218;-71
2021/04/19 08:59:37;;;;;;;7.37;6.77;;;20.00;29.60;;;;;;5033938;28;20414;-71
2021/04/19 09:02:06;;;;;;;8.23;7.40;;;20.00;29.50;;;;;;5032478;28;20628;-71
2021/04/19 09:04:31;;;;;;;6.40;5.90;;;19.90;29.40;;;;;;5030572;28;20424;-71
2021/04/19 09:06:58;;;;;;;7.43;6.73;;;20.00;29.40;;;;;;5035412;28;20439;-71
2021/04/19 09:09:35;;;;;;;8.40;7.60;;;20.00;29.40;;;;;;5030388;28;20181;-71
2021/04/19 09:12:09;;;;;;;6.63;6.03;;;20.00;29.50;;;;;;5033831;28;20457;-71
2021/04/19 09:14:39;;;;;;;6.90;6.40;;;20.00;29.50;;;;;;5030098;28;20415;-71
2021/04/19 09:17:06;;;;;;;7.73;7.13;;;20.00;29.50;;;;;;5029985;28;20905;-71
2021/04/19 09:19:34;;;;;;;7.63;5.90;;;19.90;29.50;;;;;;5030638;28;20419;-71
2021/04/19 09:22:11;;;;;;;7.27;6.63;;;19.90;29.50;;;;;;5045929;28;20505;-70
2021/04/19 09:25:01;;;;;;;7.53;6.73;;;20.00;29.50;;;;;;5043373;28;20788;-71
2021/04/19 09:27:41;;;;;;;6.40;5.90;;;19.90;29.40;;;;;;5022091;28;20571;-71
2021/04/19 09:30:26;;;;;;;7.50;6.90;;;20.00;29.70;;;;;;5034170;28;20431;-71
2021/04/19 09:33:04;;;;;;;8.90;7.30;;;20.00;29.50;;;;;;5029109;28;20834;-71
2021/04/19 09:35:39;;;;;;;7.47;6.87;;;20.00;29.50;;;;;;5029470;28;20410;-71
2021/04/19 09:38:06;;;;;;;8.43;6.90;;;20.00;29.60;;;;;;5028888;28;20484;-71
2021/04/19 09:40:48;;;;;;;7.00;6.40;;;20.00;29.50;;;;;;5029876;28;20415;-71
2021/04/19 09:43:28;;;;;;;7.40;6.77;;;20.00;29.40;;;;;;5029677;28;20785;-71
2021/04/19 09:45:55;;;;;;;6.70;6.20;;;20.00;29.40;;;;;;5029610;28;20415;-71
2021/04/19 09:48:33;;;;;;;7.07;6.37;;;20.00;29.50;;;;;;5030006;28;20415;-71
2021/04/19 09:51:22;;;;;;;8.03;6.63;;;20.00;29.40;;;;;;5029940;28;21065;-71
2021/04/19 09:54:00;;;;;;;9.43;6.63;;;20.00;29.40;;;;;;5029512;28;20458;-71
2021/04/19 09:56:32;;;;;;;6.77;6.17;;;20.00;29.40;;;;;;5029625;28;20427;-70
2021/04/19 09:58:59;;;;;;;7.10;6.43;;;20.00;29.40;;;;;;5029435;28;20430;-70
2021/04/19 10:01:26;;;;;;;6.40;5.90;;;20.00;29.50;;;;;;5029880;28;20403;-70
2021/04/19 10:03:53;;;;;;;7.50;6.10;;;20.00;29.60;;;;;;5029885;28;20955;-71
2021/04/19 10:06:23;;;;;;;6.37;5.87;;;20.00;29.60;;;;;;5027558;28;20979;-71
2021/04/19 10:08:50;;;;;;;5.90;5.30;;;20.00;29.50;;;;;;5029846;28;20410;-71
2021/04/19 10:11:22;;;;;;;6.23;5.80;;;20.00;29.50;;;;;;5029746;28;20432;-71
2021/04/19 10:13:48;;;;;;;6.80;6.30;;;20.00;29.60;;;;;;5029464;28;20855;-71
2021/04/19 10:16:14;;;;;;;6.40;5.80;;;20.00;29.70;;;;;;5029565;28;20474;-71
2021/04/19 10:18:41;;;;;;;6.60;6.10;;;20.00;29.70;;;;;;5029753;28;20485;-71
2021/04/19 10:21:09;;;;;;;6.57;6.07;;;20.00;29.90;;;;;;5029470;28;20494;-70
2021/04/19 10:23:41;;;;;;;9.20;5.93;;;20.00;29.70;;;;;;5029709;28;20403;-71
2021/04/19 10:26:08;;;;;;;6.20;5.70;;;20.00;29.80;;;;;;5029235;28;20784;-71
2021/04/19 10:28:36;;;;;;;6.53;6.00;;;20.00;30.00;;;;;;5029174;28;20513;-71
2021/04/19 10:31:21;;;;;;;6.10;5.60;;;20.00;29.70;;;;;;5029883;28;20418;-71
2021/04/19 10:33:51;;;;;;;5.73;5.33;;;20.00;30.00;;;;;;5029657;28;20458;-71
2021/04/19 10:36:29;;;;;;;5.80;5.40;;;20.00;30.00;;;;;;5029087;28;20434;-71
2021/04/19 10:38:56;;;;;;;6.20;5.70;;;20.00;30.00;;;;;;5029485;28;20408;-70
2021/04/19 10:41:42;;;;;;;6.20;5.70;;;20.00;30.00;;;;;;5029565;28;20419;-71
2021/04/19 10:44:08;;;;;;;6.13;5.73;;;20.00;30.60;;;;;;5032599;28;20415;-71
2021/04/19 10:46:37;;;;;;;8.03;5.80;;;20.00;30.00;;;;;;5032519;28;20441;-71
2021/04/19 10:49:04;;;;;;;6.07;5.67;;;20.00;30.00;;;;;;5032873;28;20454;-71
2021/04/19 10:51:31;;;;;;;5.27;4.77;;;19.90;29.90;;;;;;5032428;28;20426;-71
2021/04/19 10:53:59;;;;;;;6.13;5.73;;;20.00;30.00;;;;;;5032796;28;20443;-71
2021/04/19 10:56:26;;;;;;;6.90;6.30;;;20.00;30.00;;;;;;5032436;28;20432;-71
2021/04/19 10:59:00;;;;;;;6.23;5.67;;;20.00;30.00;;;;;;5032492;28;20418;-70
2021/04/19 11:01:29;;;;;;;6.20;5.70;;;20.00;30.00;;;;;;5032744;28;20414;-71
2021/04/19 11:03:55;;;;;;;6.80;5.07;;;20.00;30.10;;;;;;5032690;28;20896;-70
2021/04/19 11:06:21;;;;;;;5.73;5.23;;;20.00;29.90;;;;;;5031834;28;20522;-70
2021/04/19 11:08:55;;;;;;;5.70;5.30;;;20.00;29.90;;;;;;5032470;28;20408;-71
2021/04/19 11:11:39;;;;;;;5.70;4.70;;;20.10;30.00;;;;;;5032575;28;20431;-71
2021/04/19 11:14:10;;;;;;;6.40;5.90;;;20.10;30.00;;;;;;5032236;28;20411;-71
2021/04/19 11:16:36;;;;;;;6.20;5.63;;;20.10;30.00;;;;;;5032306;28;20519;-71
2021/04/19 11:19:03;;;;;;;7.63;5.90;;;20.10;29.70;;;;;;5032118;28;20411;-71
2021/04/19 11:21:31;;;;;;;7.80;5.50;;;20.10;29.70;;;;;;5031918;28;20507;-71
2021/04/19 11:24:11;;;;;;;5.70;5.30;;;20.10;29.80;;;;;;5034371;28;20412;-71
2021/04/19 11:26:38;;;;;;;7.70;5.40;;;20.10;29.90;;;;;;5040939;28;20523;-71
2021/04/19 11:29:04;;;;;;;5.97;5.47;;;20.10;30.00;;;;;;5031351;28;20411;-71
2021/04/19 11:31:41;;;;;;;6.47;5.87;;;20.10;30.00;;;;;;5031767;28;20764;-71
2021/04/19 11:34:10;;;;;;;6.17;5.57;;;20.00;30.00;;;;;;5032094;28;20443;-71
2021/04/19 11:36:46;;;;;;;6.50;5.90;;;20.00;30.00;;;;;;5034350;28;20484;-73
2021/04/19 11:39:20;;;;;;;7.07;5.50;;;20.00;30.00;;;;;;5032106;28;20407;-71
2021/04/19 11:41:48;;;;;;;6.90;5.33;;;20.00;30.00;;;;;;5032162;28;20901;-71
2021/04/19 11:44:13;;;;;;;8.33;5.97;;;20.00;30.00;;;;;;5029781;28;20468;-70
2021/04/19 11:46:44;;;;;;;6.60;6.07;;;20.00;30.00;;;;;;5024411;28;20926;-71
2021/04/19 11:49:14;;;;;;;5.83;5.43;;;20.00;30.00;;;;;;5022162;28;20552;-70
2021/04/19 11:51:40;;;;;;;6.20;5.60;;;20.00;30.00;;;;;;5022493;28;20473;-71
2021/04/19 11:54:06;;;;;;;6.37;5.27;;;20.10;30.00;;;;;;5020829;28;20459;-70
2021/04/19 11:56:32;;;;;;;8.47;6.10;;;20.00;30.00;;;;;;5019492;28;20439;-71
2021/04/19 11:58:57;;;;;;;8.87;6.73;;;20.10;30.00;;;;;;5019624;28;20651;-71
2021/04/19 12:01:23;;;;;;;8.20;6.50;;;20.10;30.00;;;;;;5020642;28;20169;-71
2021/04/19 12:03:51;;;;;;;7.20;6.27;;;20.10;30.00;;;;;;5018832;28;20266;-71
2021/04/19 12:06:17;;;;;;;7.47;5.90;;;20.10;30.00;;;;;;5021210;28;20215;-71
2021/04/19 12:08:44;;;;;;;9.00;6.60;;;20.10;30.00;;;;;;5020555;28;20455;-71
2021/04/19 12:11:12;;;;;;;10.97;6.83;;;20.10;30.00;;;;;;5019381;28;20976;-71
2021/04/19 12:13:38;;;;;;;7.17;6.50;;;20.00;30.00;;;;;;5011117;28;20467;-71
2021/04/19 12:16:04;;;;;;;7.97;6.37;;;20.10;30.00;;;;;;5010152;28;20526;-71
2021/04/19 12:18:32;;;;;;;8.90;6.73;;;20.00;30.00;;;;;;5011686;28;20412;-71
2021/04/19 12:20:59;;;;;;;7.87;6.57;;;20.10;30.00;;;;;;5011308;28;20412;-71
2021/04/19 12:23:24;;;;;;;10.30;6.33;;;20.00;30.00;;;;;;5026866;28;20481;-71
2021/04/19 12:25:53;;;;;;;9.47;7.07;;;20.00;30.00;;;;;;5038692;28;20984;-71
2021/04/19 12:28:20;;;;;;;13.30;7.00;;;20.00;30.60;;;;;;5033311;28;20176;-71
2021/04/19 12:30:46;;;;;;;9.70;7.10;;;20.00;30.00;;;;;;5033346;28;20430;-71
2021/04/19 12:33:12;;;;;;;10.07;6.00;;;20.00;30.00;;;;;;5031059;28;20461;-71
2021/04/19 12:35:37;;;;;;;16.83;7.00;;;20.00;30.00;;;;;;5030704;28;20407;-71
2021/04/19 12:38:03;;;;;;;7.97;7.17;;;20.00;30.00;;;;;;5032533;28;20223;-71
2021/04/19 12:40:29;;;;;;;9.43;6.10;;;20.00;30.00;;;;;;5031357;28;20685;-71
2021/04/19 12:42:56;;;;;;;10.40;6.57;;;20.00;30.00;;;;;;5031603;28;20173;-71
2021/04/19 12:45:24;;;;;;;7.87;6.40;;;20.00;30.00;;;;;;5031708;28;20498;-71
2021/04/19 12:47:52;;;;;;;11.03;6.27;;;20.00;30.00;;;;;;5032830;28;20526;-71
2021/04/19 12:50:17;;;;;;;9.53;6.67;;;20.00;30.00;;;;;;5032044;28;20769;-71
2021/04/19 12:52:43;;;;;;;7.97;7.17;;;20.00;30.00;;;;;;5031149;28;20462;-71